createdAt,value
2022-11-27T00:01:52.075Z,85.55
2022-11-27T00:04:21.536Z,85.55
2022-11-27T00:06:51.268Z,85.31
2022-11-27T00:09:20.993Z,85.29
2022-11-27T00:11:50.820Z,85.29
2022-11-27T00:14:20.287Z,85.04
2022-11-27T00:16:50.309Z,85.32
2022-11-27T00:19:20.116Z,85.26
2022-11-27T00:21:49.891Z,85.13
2022-11-27T00:24:19.654Z,84.95
2022-11-27T00:26:49.762Z,84.95
2022-11-27T00:29:19.480Z,84.34
2022-11-27T00:31:49.233Z,84.24
2022-11-27T00:34:18.776Z,84.15
2022-11-27T00:36:48.779Z,84.71
2022-11-27T00:39:18.876Z,84.45
2022-11-27T00:41:48.925Z,84.97
2022-11-27T00:44:18.465Z,84.32
2022-11-27T00:46:48.614Z,84.50
2022-11-27T00:49:18.535Z,84.70
2022-11-27T00:51:48.288Z,84.70
2022-11-27T00:54:21.767Z,84.33
2022-11-27T00:56:49.513Z,84.70
2022-11-27T00:59:19.264Z,84.74
2022-11-27T01:01:49.142Z,84.48
2022-11-27T01:04:19.420Z,85.11
2022-11-27T01:06:49.158Z,85.11
2022-11-27T01:09:18.931Z,84.44
2022-11-27T01:11:48.653Z,84.87
2022-11-27T01:14:19.537Z,85.07
2022-11-27T01:16:49.378Z,84.88
2022-11-27T01:19:19.286Z,85.15
2022-11-27T01:21:49.198Z,85.12
2022-11-27T01:24:18.969Z,84.83
2022-11-27T01:26:48.728Z,85.12
2022-11-27T01:29:18.522Z,85.23
2022-11-27T01:31:48.375Z,84.96
2022-11-27T01:34:19.933Z,84.69
2022-11-27T01:36:49.741Z,84.68
2022-11-27T01:39:21.335Z,84.87
2022-11-27T01:41:51.671Z,84.71
2022-11-27T01:44:30.324Z,84.83
2022-11-27T01:47:03.343Z,85.28
2022-11-27T01:49:38.730Z,85.06
2022-11-27T01:52:18.176Z,85.13
2022-11-27T01:54:53.688Z,85.29
2022-11-27T01:57:28.563Z,84.86
2022-11-27T02:00:00.765Z,85.65
2022-11-27T02:02:30.433Z,85.95
2022-11-27T02:05:00.548Z,85.95
2022-11-27T02:07:30.308Z,85.66
2022-11-27T02:10:00.445Z,85.58
2022-11-27T02:12:35.613Z,86.09
2022-11-27T02:15:13.565Z,85.77
2022-11-27T02:18:05.676Z,85.90
2022-11-27T02:21:00.615Z,86.30
2022-11-27T02:23:52.451Z,86.54
2022-11-27T02:26:39.926Z,86.55
2022-11-27T02:29:12.487Z,86.27
2022-11-27T02:31:48.460Z,85.80
2022-11-27T02:34:49.665Z,85.80
2022-11-27T02:37:45.907Z,86.95
2022-11-27T02:40:18.378Z,86.02
2022-11-27T02:42:59.864Z,85.95
2022-11-27T02:48:13.139Z,86.06
2022-11-27T02:50:45.960Z,85.71
2022-11-27T02:53:21.592Z,85.82
2022-11-27T02:55:54.274Z,85.64
2022-11-27T02:58:26.871Z,85.96
2022-11-27T03:00:58.290Z,85.84
2022-11-27T03:03:31.059Z,85.15
2022-11-27T03:06:03.877Z,84.97
2022-11-27T03:08:39.274Z,84.80
2022-11-27T03:11:12.132Z,84.75
2022-11-27T03:13:48.021Z,84.57
2022-11-27T03:16:38.118Z,84.96
2022-11-27T03:19:29.050Z,84.65
2022-11-27T03:22:01.250Z,84.83
2022-11-27T03:24:33.250Z,84.41
2022-11-27T03:27:04.038Z,84.59
2022-11-27T03:29:42.386Z,84.62
2022-11-27T03:32:14.425Z,84.57
2022-11-27T03:34:44.562Z,83.88
2022-11-27T03:37:14.622Z,84.56
2022-11-27T03:39:44.997Z,83.90
2022-11-27T03:42:33.978Z,83.82
2022-11-27T03:45:24.572Z,83.77
2022-11-27T03:48:09.047Z,83.51
2022-11-27T03:50:56.497Z,83.00
2022-11-27T03:53:59.354Z,83.76
2022-11-27T03:56:46.543Z,83.53
2022-11-27T03:59:28.155Z,83.53
2022-11-27T04:01:57.974Z,83.00
2022-11-27T04:04:27.842Z,83.26
2022-11-27T04:06:57.583Z,83.32
2022-11-27T04:09:27.325Z,82.80
2022-11-27T04:11:57.111Z,82.62
2022-11-27T04:14:26.831Z,82.56
2022-11-27T04:16:56.880Z,82.91
2022-11-27T04:19:26.615Z,82.61
2022-11-27T04:21:56.587Z,82.59
2022-11-27T04:24:26.196Z,82.12
2022-11-27T04:26:56.222Z,81.99
2022-11-27T04:29:26.240Z,81.65
2022-11-27T04:31:56.013Z,81.79
2022-11-27T04:34:25.726Z,81.78
2022-11-27T04:36:55.579Z,81.36
2022-11-27T04:39:25.523Z,81.82
2022-11-27T04:41:55.571Z,81.17
2022-11-27T04:44:25.281Z,81.46
2022-11-27T04:46:55.132Z,81.82
2022-11-27T04:49:25.149Z,81.21
2022-11-27T04:51:54.912Z,80.94
2022-11-27T04:54:24.629Z,81.12
2022-11-27T04:56:54.376Z,80.98
2022-11-27T04:59:24.493Z,81.34
2022-11-27T05:01:54.214Z,81.05
2022-11-27T05:04:24.176Z,81.00
2022-11-27T05:06:53.998Z,80.29
2022-11-27T05:09:23.703Z,80.54
2022-11-27T05:11:53.468Z,80.76
2022-11-27T05:14:24.710Z,80.61
2022-11-27T05:16:57.345Z,80.32
2022-11-27T05:19:30.109Z,80.60
2022-11-27T05:22:00.218Z,79.92
2022-11-27T05:24:30.783Z,79.92
2022-11-27T05:27:00.689Z,80.02
2022-11-27T05:29:30.526Z,79.72
2022-11-27T05:32:00.289Z,79.78
2022-11-27T05:34:30.351Z,79.71
2022-11-27T05:37:00.165Z,79.54
2022-11-27T05:39:29.908Z,80.17
2022-11-27T05:41:59.750Z,80.02
2022-11-27T05:44:29.628Z,80.18
2022-11-27T05:46:59.438Z,79.90
2022-11-27T05:49:29.198Z,79.49
2022-11-27T05:51:58.944Z,80.17
2022-11-27T05:54:28.789Z,80.00
2022-11-27T05:56:58.828Z,79.69
2022-11-27T05:59:28.570Z,79.82
2022-11-27T06:01:58.424Z,80.00
2022-11-27T06:04:28.468Z,79.67
2022-11-27T06:06:58.500Z,79.78
2022-11-27T06:09:28.248Z,79.71
2022-11-27T06:11:58.072Z,80.19
2022-11-27T06:14:27.558Z,79.58
2022-11-27T06:16:57.698Z,79.57
2022-11-27T06:19:27.419Z,78.91
2022-11-27T06:21:57.144Z,79.07
2022-11-27T06:24:27.031Z,79.16
2022-11-27T06:26:56.762Z,79.02
2022-11-27T06:29:26.807Z,79.44
2022-11-27T06:31:56.673Z,78.78
2022-11-27T06:34:26.437Z,78.80
2022-11-27T06:36:56.197Z,78.67
2022-11-27T06:39:25.968Z,78.04
2022-11-27T06:41:55.680Z,78.75
2022-11-27T06:44:25.498Z,79.27
2022-11-27T06:46:54.949Z,79.66
2022-11-27T06:49:24.734Z,78.69
2022-11-27T06:51:54.507Z,79.13
2022-11-27T06:54:24.375Z,79.69
2022-11-27T06:56:54.398Z,79.29
2022-11-27T06:59:24.174Z,79.49
2022-11-27T07:01:54.338Z,79.14
2022-11-27T07:04:23.992Z,79.27
2022-11-27T07:06:55.571Z,79.00
2022-11-27T07:09:25.318Z,78.64
2022-11-27T07:11:55.072Z,79.58
2022-11-27T07:14:25.209Z,79.29
2022-11-27T07:16:55.092Z,78.94
2022-11-27T07:19:24.889Z,79.07
2022-11-27T07:21:54.926Z,79.49
2022-11-27T07:24:25.151Z,79.50
2022-11-27T07:26:55.194Z,79.40
2022-11-27T07:29:25.109Z,79.67
2022-11-27T07:31:54.945Z,79.45
2022-11-27T07:34:25.113Z,79.65
2022-11-27T07:36:55.207Z,79.90
2022-11-27T07:39:46.324Z,79.88
2022-11-27T07:41:57.408Z,80.01
2022-11-27T07:44:28.522Z,80.67
2022-11-27T07:46:58.265Z,80.44
2022-11-27T07:49:28.285Z,80.13
2022-11-27T07:51:58.334Z,80.80
2022-11-27T07:54:28.370Z,80.48
2022-11-27T07:56:58.404Z,80.56
2022-11-27T07:59:28.437Z,81.12
2022-11-27T08:01:58.244Z,81.03
2022-11-27T08:04:28.514Z,81.03
2022-11-27T08:06:58.579Z,81.02
2022-11-27T08:09:30.660Z,82.15
2022-11-27T08:12:00.419Z,82.40
2022-11-27T08:14:30.646Z,82.22
2022-11-27T08:17:00.435Z,82.20
2022-11-27T08:19:30.699Z,82.09
2022-11-27T08:22:00.727Z,83.00
2022-11-27T08:24:30.796Z,82.79
2022-11-27T08:27:00.727Z,83.21
2022-11-27T08:29:33.936Z,83.38
2022-11-27T08:32:02.321Z,83.21
2022-11-27T08:34:32.424Z,83.22
2022-11-27T08:37:02.166Z,83.86
2022-11-27T08:39:32.212Z,84.18
2022-11-27T08:42:01.935Z,84.61
2022-11-27T08:44:31.962Z,84.43
2022-11-27T08:47:01.702Z,84.37
2022-11-27T08:49:31.790Z,84.83
2022-11-27T08:52:01.269Z,84.06
2022-11-27T08:54:30.718Z,84.11
2022-11-27T08:57:00.464Z,84.13
2022-11-27T08:59:29.940Z,84.02
2022-11-27T09:01:59.732Z,84.58
2022-11-27T09:04:29.913Z,83.71
2022-11-27T09:06:59.755Z,83.28
2022-11-27T09:09:29.782Z,83.03
2022-11-27T09:11:59.588Z,82.89
2022-11-27T09:14:29.690Z,83.34
2022-11-27T09:16:59.774Z,83.30
2022-11-27T09:19:29.538Z,82.74
2022-11-27T09:21:59.457Z,82.96
2022-11-27T09:24:29.179Z,83.39
2022-11-27T09:26:58.894Z,83.55
2022-11-27T09:29:28.924Z,83.25
2022-11-27T09:31:59.035Z,83.58
2022-11-27T09:34:30.491Z,83.01
2022-11-27T09:37:00.337Z,83.35
2022-11-27T09:39:32.575Z,83.35
2022-11-27T09:42:05.955Z,83.27
2022-11-27T09:44:50.739Z,83.46
2022-11-27T09:47:23.481Z,83.53
2022-11-27T09:50:01.365Z,83.33
2022-11-27T09:52:55.184Z,83.61
2022-11-27T09:55:41.570Z,83.62
2022-11-27T09:58:20.942Z,83.68
2022-11-27T10:00:51.045Z,83.35
2022-11-27T10:03:24.198Z,83.44
2022-11-27T10:06:31.407Z,83.07
2022-11-27T10:09:29.115Z,83.07
2022-11-27T10:12:07.809Z,83.67
2022-11-27T10:14:46.131Z,83.37
2022-11-27T10:17:22.044Z,83.36
2022-11-27T10:20:00.539Z,83.55
2022-11-27T10:22:33.695Z,83.08
2022-11-27T10:25:21.041Z,84.16
2022-11-27T10:28:13.493Z,83.64
2022-11-27T10:30:48.950Z,83.94
2022-11-27T10:33:21.449Z,83.63
2022-11-27T10:35:52.540Z,83.37
2022-11-27T10:38:26.488Z,82.78
2022-11-27T10:41:09.830Z,82.97
2022-11-27T10:43:39.388Z,83.24
2022-11-27T10:46:21.603Z,84.15
2022-11-27T10:48:51.701Z,83.92
2022-11-27T10:51:27.477Z,84.05
2022-11-27T10:53:59.436Z,84.02
2022-11-27T10:56:37.607Z,84.02
2022-11-27T10:59:32.896Z,83.62
2022-11-27T11:01:59.888Z,83.22
2022-11-27T11:04:37.945Z,83.58
2022-11-27T11:07:03.734Z,82.62
2022-11-27T11:09:35.720Z,83.57
2022-11-27T11:12:11.276Z,83.41
2022-11-27T11:14:43.109Z,83.35
2022-11-27T11:17:19.301Z,83.00
2022-11-27T11:19:49.013Z,82.25
2022-11-27T11:22:19.411Z,82.42
2022-11-27T11:24:51.982Z,82.51
2022-11-27T11:27:24.114Z,82.29
2022-11-27T11:30:01.833Z,82.65
2022-11-27T11:32:40.005Z,82.12
2022-11-27T11:35:13.050Z,81.90
2022-11-27T11:37:47.477Z,82.50
2022-11-27T11:40:25.065Z,81.98
2022-11-27T11:43:02.918Z,82.14
2022-11-27T11:45:34.425Z,82.54
2022-11-27T11:48:23.677Z,82.26
2022-11-27T11:51:08.331Z,82.24
2022-11-27T11:53:40.709Z,82.86
2022-11-27T11:56:38.595Z,83.10
2022-11-27T11:59:25.889Z,83.01
2022-11-27T12:02:17.845Z,82.88
2022-11-27T12:05:24.617Z,83.62
2022-11-27T12:08:00.276Z,83.06
2022-11-27T12:10:36.029Z,82.73
2022-11-27T12:13:33.997Z,83.77
2022-11-27T12:16:27.433Z,82.93
2022-11-27T12:19:18.247Z,83.10
2022-11-27T12:22:02.919Z,83.39
2022-11-27T12:24:44.289Z,83.01
2022-11-27T12:27:49.935Z,83.01
2022-11-27T12:30:28.855Z,83.03
2022-11-27T12:33:16.497Z,83.28
2022-11-27T12:35:55.168Z,83.42
2022-11-27T12:38:43.080Z,83.66
2022-11-27T12:41:30.805Z,83.23
2022-11-27T12:44:01.261Z,84.39
2022-11-27T12:46:51.962Z,83.32
2022-11-27T12:49:36.648Z,83.41
2022-11-27T12:52:42.353Z,83.68
2022-11-27T12:55:20.385Z,83.87
2022-11-27T12:58:05.046Z,83.80
2022-11-27T13:00:37.827Z,83.65
2022-11-27T13:03:16.211Z,83.31
2022-11-27T13:05:49.000Z,83.39
2022-11-27T13:08:27.603Z,83.42
2022-11-27T13:11:06.251Z,83.55
2022-11-27T13:13:53.996Z,82.99
2022-11-27T13:16:38.503Z,83.24
2022-11-27T13:19:33.680Z,83.38
2022-11-27T13:22:09.353Z,83.16
2022-11-27T13:24:39.635Z,83.20
2022-11-27T13:27:15.353Z,83.07
2022-11-27T13:29:50.399Z,82.60
2022-11-27T13:32:26.365Z,83.04
2022-11-27T13:34:59.185Z,83.32
2022-11-27T13:37:41.460Z,83.21
2022-11-27T13:40:23.367Z,82.95
2022-11-27T13:42:56.350Z,82.53
2022-11-27T13:45:29.232Z,82.33
2022-11-27T13:48:01.931Z,82.48
2022-11-27T13:50:31.833Z,82.71
2022-11-27T13:53:04.721Z,82.76
2022-11-27T13:55:39.911Z,82.50
2022-11-27T13:58:10.808Z,82.71
2022-11-27T14:00:43.893Z,82.79
2022-11-27T14:03:25.568Z,82.60
2022-11-27T14:05:56.234Z,82.68
2022-11-27T14:08:34.307Z,82.51
2022-11-27T14:11:13.204Z,83.20
2022-11-27T14:13:48.966Z,83.21
2022-11-27T14:16:35.583Z,83.24
2022-11-27T14:19:08.690Z,83.56
2022-11-27T14:21:44.048Z,84.22
2022-11-27T14:24:39.823Z,83.72
2022-11-27T14:27:21.174Z,83.57
2022-11-27T14:29:52.246Z,83.52
2022-11-27T14:32:22.866Z,83.77
2022-11-27T14:34:52.605Z,84.08
2022-11-27T14:37:27.784Z,83.66
2022-11-27T14:39:57.599Z,83.53
2022-11-27T14:42:32.970Z,83.71
2022-11-27T14:45:07.112Z,83.69
2022-11-27T14:47:38.674Z,84.13
2022-11-27T14:50:11.552Z,84.13
2022-11-27T14:52:43.166Z,83.93
2022-11-27T14:55:16.962Z,84.46
2022-11-27T14:57:49.946Z,84.41
2022-11-27T15:00:24.238Z,84.25
2022-11-27T15:02:55.066Z,83.70
2022-11-27T15:05:28.017Z,83.21
2022-11-27T15:07:59.575Z,83.17
2022-11-27T15:10:37.520Z,83.00
2022-11-27T15:13:10.080Z,83.51
2022-11-27T15:15:47.380Z,83.69
2022-11-27T15:18:20.294Z,84.02
2022-11-27T15:20:50.671Z,83.96
2022-11-27T15:23:25.170Z,83.87
2022-11-27T15:26:15.953Z,84.71
2022-11-27T15:28:46.818Z,83.67
2022-11-27T15:31:37.853Z,83.32
2022-11-27T15:34:16.273Z,83.18
2022-11-27T15:37:02.686Z,82.88
2022-11-27T15:39:51.525Z,82.81
2022-11-27T15:42:22.270Z,82.61
2022-11-27T15:44:54.705Z,83.14
2022-11-27T15:47:30.870Z,82.51
2022-11-27T15:49:59.636Z,83.78
2022-11-27T15:52:29.707Z,83.75
2022-11-27T15:54:59.491Z,83.21
2022-11-27T15:57:29.254Z,83.74
2022-11-27T15:59:59.264Z,83.53
2022-11-27T16:02:30.251Z,83.86
2022-11-27T16:05:00.319Z,83.39
2022-11-27T16:07:31.276Z,83.55
2022-11-27T16:10:01.105Z,83.39
2022-11-27T16:12:30.824Z,83.17
2022-11-27T16:15:00.562Z,82.76
2022-11-27T16:17:30.360Z,82.80
2022-11-27T16:20:00.117Z,83.14
2022-11-27T16:22:29.632Z,82.64
2022-11-27T16:24:59.350Z,83.01
2022-11-27T16:27:29.089Z,83.04
2022-11-27T16:30:00.016Z,82.23
2022-11-27T16:32:29.484Z,82.21
2022-11-27T16:34:59.627Z,82.30
2022-11-27T16:37:29.416Z,82.11
2022-11-27T16:39:59.322Z,82.50
2022-11-27T16:42:30.100Z,82.99
2022-11-27T16:44:59.836Z,83.17
2022-11-27T16:47:33.803Z,83.40
2022-11-27T16:50:03.217Z,82.95
2022-11-27T16:52:34.695Z,82.26
2022-11-27T16:55:04.794Z,82.99
2022-11-27T16:57:34.685Z,82.49
2022-11-27T17:00:05.792Z,82.92
2022-11-27T17:02:35.674Z,82.41
2022-11-27T17:05:07.747Z,81.55
2022-11-27T17:07:37.600Z,81.89
2022-11-27T17:10:09.479Z,82.31
2022-11-27T17:12:39.282Z,82.42
2022-11-27T17:15:10.536Z,81.90
2022-11-27T17:17:41.248Z,82.02
2022-11-27T17:20:12.211Z,82.17
2022-11-27T17:22:42.312Z,82.02
2022-11-27T17:25:12.255Z,81.64
2022-11-27T17:27:42.562Z,81.59
2022-11-27T17:30:12.645Z,81.18
2022-11-27T17:32:42.735Z,81.39
2022-11-27T17:35:12.412Z,80.97
2022-11-27T17:37:43.582Z,81.22
2022-11-27T17:40:15.910Z,81.22
2022-11-27T17:42:45.641Z,81.70
2022-11-27T17:45:15.083Z,81.17
2022-11-27T17:47:44.824Z,81.63
2022-11-27T17:50:15.870Z,81.55
2022-11-27T17:52:45.742Z,81.53
2022-11-27T17:55:15.604Z,81.79
2022-11-27T17:57:45.372Z,82.54
2022-11-27T18:00:16.749Z,83.83
2022-11-27T18:02:46.913Z,83.41
2022-11-27T18:05:16.447Z,83.19
2022-11-27T18:07:46.621Z,84.17
2022-11-27T18:10:20.241Z,83.40
2022-11-27T18:12:50.344Z,83.50
2022-11-27T18:15:20.324Z,83.69
2022-11-27T18:17:50.586Z,84.30
2022-11-27T18:20:20.292Z,83.89
2022-11-27T18:22:50.453Z,83.89
2022-11-27T18:25:19.952Z,84.96
2022-11-27T18:27:49.707Z,84.94
2022-11-27T18:30:19.738Z,84.85
2022-11-27T18:32:49.549Z,86.02
2022-11-27T18:35:19.052Z,86.02
2022-11-27T18:37:48.797Z,85.82
2022-11-27T18:40:18.682Z,85.40
2022-11-27T18:42:48.455Z,85.65
2022-11-27T18:45:32.300Z,85.47
2022-11-27T18:47:50.124Z,86.13
2022-11-27T18:50:19.847Z,85.83
2022-11-27T18:52:50.430Z,85.81
2022-11-27T18:55:19.871Z,86.37
2022-11-27T18:57:49.700Z,86.01
2022-11-27T19:00:19.884Z,85.43
2022-11-27T19:02:49.777Z,86.00
2022-11-27T19:05:19.511Z,86.19
2022-11-27T19:07:50.473Z,86.19
2022-11-27T19:10:21.449Z,86.36
2022-11-27T19:12:50.963Z,87.01
2022-11-27T19:15:20.518Z,87.16
2022-11-27T19:17:50.252Z,86.80
2022-11-27T19:20:20.050Z,86.41
2022-11-27T19:22:49.786Z,86.69
2022-11-27T19:25:19.680Z,86.45
2022-11-27T19:27:49.938Z,86.97
2022-11-27T19:30:19.890Z,86.72
2022-11-27T19:32:49.673Z,86.76
2022-11-27T19:35:20.916Z,86.87
2022-11-27T19:37:51.015Z,86.95
2022-11-27T19:40:21.714Z,87.30
2022-11-27T19:42:54.588Z,87.30
2022-11-27T19:45:25.712Z,87.29
2022-11-27T19:47:55.224Z,88.08
2022-11-27T19:50:25.711Z,87.11
2022-11-27T19:52:55.773Z,87.11
2022-11-27T19:55:25.475Z,87.77
2022-11-27T19:57:55.209Z,88.15
2022-11-27T20:00:25.017Z,87.78
2022-11-27T20:02:54.809Z,87.38
2022-11-27T20:05:24.639Z,87.85
2022-11-27T20:07:55.729Z,87.85
2022-11-27T20:10:25.497Z,87.82
2022-11-27T20:12:55.232Z,87.85
2022-11-27T20:15:25.052Z,87.74
2022-11-27T20:17:56.138Z,87.51
2022-11-27T20:20:30.149Z,87.42
2022-11-27T20:22:58.286Z,87.83
2022-11-27T20:25:28.358Z,88.73
2022-11-27T20:27:58.378Z,88.30
2022-11-27T20:30:28.117Z,88.09
2022-11-27T20:33:04.458Z,88.20
2022-11-27T20:35:31.201Z,88.64
2022-11-27T20:38:01.035Z,88.49
2022-11-27T20:40:30.728Z,88.67
2022-11-27T20:43:00.824Z,88.29
2022-11-27T20:45:30.682Z,88.38
2022-11-27T20:48:00.706Z,88.23
2022-11-27T20:50:30.595Z,88.51
2022-11-27T20:53:00.845Z,88.92
2022-11-27T20:55:31.047Z,88.63
2022-11-27T20:58:02.052Z,88.58
2022-11-27T21:00:32.097Z,89.71
2022-11-27T21:03:02.066Z,89.71
2022-11-27T21:05:31.806Z,89.33
2022-11-27T21:08:01.986Z,89.42
2022-11-27T21:10:31.822Z,89.18
2022-11-27T21:13:01.638Z,89.55
2022-11-27T21:15:31.365Z,89.04
2022-11-27T21:18:01.144Z,90.02
2022-11-27T21:20:31.286Z,89.78
2022-11-27T21:23:01.026Z,89.18
2022-11-27T21:25:30.878Z,89.12
2022-11-27T21:28:00.616Z,89.33
2022-11-27T21:30:30.494Z,88.53
2022-11-27T21:33:00.310Z,88.68
2022-11-27T21:35:32.137Z,88.95
2022-11-27T21:38:01.852Z,88.95
2022-11-27T21:40:32.636Z,88.50
2022-11-27T21:43:02.775Z,88.40
2022-11-27T21:45:32.843Z,88.93
2022-11-27T21:48:02.656Z,88.93
2022-11-27T21:50:32.437Z,89.29
2022-11-27T21:53:02.576Z,89.16
2022-11-27T21:55:32.875Z,88.68
2022-11-27T21:58:02.945Z,88.84
2022-11-27T22:00:32.697Z,88.97
2022-11-27T22:03:02.736Z,88.41
2022-11-27T22:05:32.499Z,88.02
2022-11-27T22:08:02.398Z,88.72
2022-11-27T22:10:32.270Z,87.50
2022-11-27T22:13:02.018Z,87.44
2022-11-27T22:15:31.772Z,88.69
2022-11-27T22:18:01.796Z,87.97
2022-11-27T22:20:31.839Z,87.04
2022-11-27T22:23:01.574Z,87.82
2022-11-27T22:25:32.336Z,87.82
2022-11-27T22:28:02.702Z,87.46
2022-11-27T22:30:33.272Z,86.90
2022-11-27T22:33:03.169Z,87.08
2022-11-27T22:35:32.898Z,86.83
2022-11-27T22:38:02.636Z,85.93
2022-11-27T22:40:32.145Z,86.13
2022-11-27T22:43:01.882Z,86.19
2022-11-27T22:45:31.733Z,86.17
2022-11-27T22:48:01.340Z,85.72
2022-11-27T22:50:31.243Z,85.91
2022-11-27T22:53:00.966Z,85.55
2022-11-27T22:55:31.006Z,85.06
2022-11-27T22:58:01.078Z,85.46
2022-11-27T23:00:30.896Z,85.40
2022-11-27T23:03:00.736Z,84.83
2022-11-27T23:05:30.812Z,84.83
2022-11-27T23:08:00.596Z,85.65
2022-11-27T23:10:30.531Z,85.27
2022-11-27T23:13:00.582Z,85.24
2022-11-27T23:15:30.417Z,84.61
2022-11-27T23:18:00.155Z,84.65
2022-11-27T23:20:29.892Z,84.76
2022-11-27T23:22:59.690Z,84.41
2022-11-27T23:25:30.879Z,84.59
2022-11-27T23:28:00.732Z,84.32
2022-11-27T23:30:30.314Z,84.23
2022-11-27T23:33:00.034Z,84.08
2022-11-27T23:35:30.252Z,83.86
2022-11-27T23:37:59.986Z,83.84
2022-11-27T23:40:29.707Z,83.91
2022-11-27T23:42:59.510Z,83.66
2022-11-27T23:45:29.166Z,84.10
2022-11-27T23:47:58.908Z,83.65
2022-11-27T23:50:28.677Z,82.89
2022-11-27T23:52:58.422Z,83.27
2022-11-27T23:55:28.150Z,83.66
2022-11-27T23:57:57.875Z,83.22
